createdAt,value
2023-05-19T00:01:45.587Z,3.00
2023-05-19T00:04:17.921Z,3.73
2023-05-19T00:06:52.102Z,3.53
2023-05-19T00:09:28.022Z,2.80
2023-05-19T00:11:58.833Z,3.57
2023-05-19T00:14:27.111Z,3.83
2023-05-19T00:16:56.199Z,3.23
2023-05-19T00:19:25.030Z,3.13
2023-05-19T00:21:55.038Z,4.20
2023-05-19T00:24:24.462Z,2.70
2023-05-19T00:26:52.785Z,3.57
2023-05-19T00:29:26.658Z,3.40
2023-05-19T00:31:54.554Z,3.00
2023-05-19T00:34:27.363Z,3.40
2023-05-19T00:37:00.759Z,2.80
2023-05-19T00:39:33.179Z,3.90
2023-05-19T00:42:03.844Z,3.60
2023-05-19T00:44:34.566Z,3.30
2023-05-19T00:47:04.730Z,3.20
2023-05-19T00:49:46.209Z,2.97
2023-05-19T00:52:14.031Z,3.50
2023-05-19T00:54:50.097Z,3.60
2023-05-19T00:57:20.938Z,3.30
2023-05-19T00:59:49.879Z,3.07
2023-05-19T01:02:21.821Z,3.30
2023-05-19T01:04:53.804Z,3.30
2023-05-19T01:07:26.023Z,3.20
2023-05-19T01:09:55.481Z,3.23
2023-05-19T01:12:26.001Z,3.57
2023-05-19T01:14:54.188Z,3.53
2023-05-19T01:17:25.827Z,3.57
2023-05-19T01:20:06.655Z,3.97
2023-05-19T01:22:57.608Z,2.90
2023-05-19T01:25:42.552Z,3.17
2023-05-19T01:28:53.396Z,3.20
2023-05-19T01:31:24.572Z,4.23
2023-05-19T01:34:04.683Z,3.60
2023-05-19T01:36:33.968Z,3.10
2023-05-19T01:39:03.982Z,3.37
2023-05-19T01:41:32.957Z,4.10
2023-05-19T01:44:04.615Z,3.30
2023-05-19T01:46:34.094Z,3.93
2023-05-19T01:49:05.185Z,3.50
2023-05-19T01:51:39.891Z,4.20
2023-05-19T01:54:09.788Z,3.60
2023-05-19T01:56:43.262Z,3.50
2023-05-19T01:59:24.404Z,3.10
2023-05-19T02:02:01.046Z,3.30
2023-05-19T02:04:40.305Z,3.40
2023-05-19T02:07:15.705Z,3.33
2023-05-19T02:09:53.448Z,3.43
2023-05-19T02:12:25.963Z,3.53
2023-05-19T02:15:06.984Z,3.20
2023-05-19T02:17:47.793Z,3.53
2023-05-19T02:20:19.842Z,3.50
2023-05-19T02:22:49.467Z,3.40
2023-05-19T02:25:25.981Z,3.67
2023-05-19T02:27:54.157Z,3.90
2023-05-19T02:30:25.318Z,3.87
2023-05-19T02:32:58.946Z,4.20
2023-05-19T02:35:27.983Z,3.87
2023-05-19T02:37:55.868Z,3.40
2023-05-19T02:40:26.480Z,4.53
2023-05-19T02:43:00.265Z,3.30
2023-05-19T02:45:29.736Z,4.33
2023-05-19T02:48:03.624Z,2.60
2023-05-19T02:50:35.104Z,2.80
2023-05-19T02:53:05.706Z,4.00
2023-05-19T02:55:33.790Z,4.33
2023-05-19T02:58:01.763Z,4.50
2023-05-19T03:00:32.282Z,3.80
2023-05-19T03:03:04.584Z,3.37
2023-05-19T03:05:32.617Z,4.47
2023-05-19T03:08:00.702Z,3.60
2023-05-19T03:10:34.151Z,3.60
2023-05-19T03:13:09.357Z,3.67
2023-05-19T03:15:37.219Z,3.53
2023-05-19T03:18:08.503Z,3.60
2023-05-19T03:20:36.336Z,3.93
2023-05-19T03:23:04.204Z,3.33
2023-05-19T03:25:40.925Z,3.90
2023-05-19T03:28:08.813Z,3.40
2023-05-19T03:30:38.463Z,3.50
2023-05-19T03:33:10.095Z,4.43
2023-05-19T03:35:38.007Z,3.40
2023-05-19T03:38:05.761Z,3.57
2023-05-19T03:40:38.888Z,4.50
2023-05-19T03:43:17.888Z,3.33
2023-05-19T03:45:45.772Z,4.00
2023-05-19T03:48:19.131Z,3.57
2023-05-19T03:50:49.530Z,3.83
2023-05-19T03:53:17.400Z,3.60
2023-05-19T03:55:50.714Z,3.67
2023-05-19T03:58:18.862Z,4.13
2023-05-19T04:00:47.030Z,4.50
2023-05-19T04:03:19.840Z,3.00
2023-05-19T04:05:48.316Z,4.03
2023-05-19T04:08:18.057Z,3.50
2023-05-19T04:10:45.882Z,3.60
2023-05-19T04:13:14.905Z,3.43
2023-05-19T04:15:43.862Z,3.10
2023-05-19T04:18:11.750Z,3.53
2023-05-19T04:20:46.087Z,4.13
2023-05-19T04:23:13.936Z,3.87
2023-05-19T04:25:48.738Z,3.53
2023-05-19T04:28:16.815Z,4.10
2023-05-19T04:30:50.594Z,3.90
2023-05-19T04:33:21.530Z,3.77
2023-05-19T04:35:52.863Z,4.30
2023-05-19T04:38:25.760Z,4.33
2023-05-19T04:40:53.730Z,3.77
2023-05-19T04:43:22.293Z,4.13
2023-05-19T04:46:01.627Z,4.10
2023-05-19T04:48:31.022Z,3.87
2023-05-19T04:51:01.620Z,3.87
2023-05-19T04:53:33.016Z,3.80
2023-05-19T04:56:02.135Z,3.70
2023-05-19T04:58:31.389Z,4.60
2023-05-19T05:01:01.835Z,3.43
2023-05-19T05:03:31.029Z,4.00
2023-05-19T05:06:00.373Z,3.13
2023-05-19T05:08:32.558Z,3.63
2023-05-19T05:11:02.919Z,3.30
2023-05-19T05:13:34.248Z,3.80
2023-05-19T05:16:05.053Z,4.60
2023-05-19T05:18:34.899Z,3.20
2023-05-19T05:21:06.063Z,4.00
2023-05-19T05:23:40.403Z,4.40
2023-05-19T05:26:23.099Z,3.47
2023-05-19T05:28:52.248Z,3.40
2023-05-19T05:31:26.501Z,3.30
2023-05-19T05:33:57.192Z,3.40
2023-05-19T05:36:29.534Z,3.43
2023-05-19T05:38:57.326Z,4.67
2023-05-19T05:41:28.096Z,4.13
2023-05-19T05:43:57.796Z,3.50
2023-05-19T05:46:28.679Z,3.90
2023-05-19T05:49:01.384Z,3.77
2023-05-19T05:51:32.875Z,3.37
2023-05-19T05:54:03.897Z,4.83
2023-05-19T05:56:33.739Z,4.03
2023-05-19T05:59:07.024Z,3.97
2023-05-19T06:01:35.969Z,3.63
2023-05-19T06:04:06.720Z,4.07
2023-05-19T06:06:41.651Z,4.23
2023-05-19T06:09:09.420Z,3.50
2023-05-19T06:11:37.530Z,3.93
2023-05-19T06:14:05.767Z,3.60
2023-05-19T06:16:34.084Z,3.67
2023-05-19T06:19:04.172Z,3.63
2023-05-19T06:21:46.196Z,3.90
2023-05-19T06:24:16.719Z,4.60
2023-05-19T06:26:50.078Z,4.20
2023-05-19T06:29:18.532Z,4.97
2023-05-19T06:31:49.842Z,4.40
2023-05-19T06:34:18.086Z,3.73
2023-05-19T06:36:45.862Z,5.60
2023-05-19T06:39:18.182Z,5.20
2023-05-19T06:41:46.431Z,3.80
2023-05-19T06:44:15.586Z,4.27
2023-05-19T06:46:44.404Z,3.87
2023-05-19T06:49:12.291Z,4.20
2023-05-19T06:51:43.082Z,4.13
2023-05-19T06:54:16.407Z,4.33
2023-05-19T06:56:46.146Z,4.73
2023-05-19T06:59:16.874Z,4.37
2023-05-19T07:01:45.076Z,4.30
2023-05-19T07:04:13.359Z,3.80
2023-05-19T07:06:41.693Z,4.23
2023-05-19T07:09:10.606Z,4.23
2023-05-19T07:11:39.361Z,4.60
2023-05-19T07:14:09.202Z,4.33
2023-05-19T07:16:37.658Z,5.40
2023-05-19T07:19:06.033Z,4.33
2023-05-19T07:21:46.289Z,4.43
2023-05-19T07:24:15.652Z,4.40
2023-05-19T07:26:46.519Z,4.87
2023-05-19T07:29:19.926Z,6.00
2023-05-19T07:31:48.075Z,5.47
2023-05-19T07:34:15.956Z,4.87
2023-05-19T07:36:43.936Z,4.90
2023-05-19T07:39:13.798Z,4.40
2023-05-19T07:41:41.850Z,4.33
2023-05-19T07:44:10.434Z,5.10
2023-05-19T07:46:40.109Z,4.17
2023-05-19T07:49:08.272Z,5.23
2023-05-19T07:51:38.953Z,5.00
2023-05-19T07:54:09.026Z,4.67
2023-05-19T07:56:36.899Z,4.40
2023-05-19T07:59:08.405Z,4.50
2023-05-19T08:01:38.569Z,5.30
2023-05-19T08:04:10.296Z,4.83
2023-05-19T08:06:44.673Z,5.00
2023-05-19T08:09:13.092Z,4.93
2023-05-19T08:11:42.479Z,4.43
2023-05-19T08:14:10.907Z,4.80
2023-05-19T08:16:38.737Z,3.97
2023-05-19T08:19:10.311Z,4.70
2023-05-19T08:21:42.271Z,3.90
2023-05-19T08:24:11.425Z,5.10
2023-05-19T08:26:39.727Z,4.70
2023-05-19T08:29:08.698Z,4.40
2023-05-19T08:31:36.508Z,4.20
2023-05-19T08:34:04.948Z,3.80
2023-05-19T08:36:36.494Z,4.33
2023-05-19T08:39:09.405Z,3.77
2023-05-19T08:41:39.711Z,4.73
2023-05-19T08:44:15.700Z,3.90
2023-05-19T08:46:44.929Z,4.13
2023-05-19T08:49:15.734Z,4.00
2023-05-19T08:51:49.486Z,3.60
2023-05-19T08:54:18.422Z,3.50
2023-05-19T08:56:47.166Z,4.33
2023-05-19T08:59:15.754Z,4.50
2023-05-19T09:01:47.148Z,4.33
2023-05-19T09:04:20.266Z,4.13
2023-05-19T09:06:50.323Z,4.10
2023-05-19T09:09:25.277Z,4.13
2023-05-19T09:11:57.326Z,4.97
2023-05-19T09:14:25.472Z,4.43
2023-05-19T09:16:59.191Z,3.77
2023-05-19T09:19:43.383Z,4.43
2023-05-19T09:22:17.977Z,3.80
2023-05-19T09:24:47.151Z,5.57
2023-05-19T09:27:16.580Z,4.00
2023-05-19T09:29:44.972Z,4.57
2023-05-19T09:32:15.156Z,4.37
2023-05-19T09:34:43.860Z,4.17
2023-05-19T09:37:14.310Z,5.47
2023-05-19T09:39:48.561Z,4.00
2023-05-19T09:42:18.800Z,5.10
2023-05-19T09:44:51.544Z,3.93
2023-05-19T09:47:20.634Z,4.13
2023-05-19T09:49:49.245Z,4.77
2023-05-19T09:52:18.498Z,4.03
2023-05-19T09:54:46.912Z,4.17
2023-05-19T09:57:15.483Z,4.53
2023-05-19T09:59:45.310Z,4.30
2023-05-19T10:02:18.255Z,3.70
2023-05-19T10:04:47.723Z,4.73
2023-05-19T10:07:19.278Z,4.80
2023-05-19T10:09:50.325Z,4.67
2023-05-19T10:12:24.613Z,4.90
2023-05-19T10:14:54.845Z,4.73
2023-05-19T10:17:26.751Z,5.33
2023-05-19T10:20:00.198Z,4.60
2023-05-19T10:22:31.047Z,4.50
2023-05-19T10:25:00.848Z,3.70
2023-05-19T10:27:30.119Z,4.17
2023-05-19T10:30:05.919Z,4.10
2023-05-19T10:32:35.197Z,5.47
2023-05-19T10:35:34.545Z,3.40
2023-05-19T10:38:11.067Z,4.20
2023-05-19T10:40:55.505Z,3.97
2023-05-19T10:43:27.358Z,4.00
2023-05-19T10:45:56.397Z,4.83
2023-05-19T10:48:26.740Z,4.03
2023-05-19T10:51:00.213Z,3.83
2023-05-19T10:53:32.837Z,3.60
2023-05-19T10:56:04.523Z,4.30
2023-05-19T10:58:50.240Z,4.53
2023-05-19T11:01:18.949Z,3.93
2023-05-19T11:03:48.468Z,4.07
2023-05-19T11:06:24.596Z,4.07
2023-05-19T11:08:58.258Z,4.50
2023-05-19T11:11:51.733Z,3.57
2023-05-19T11:14:23.127Z,4.30
2023-05-19T11:17:05.567Z,4.00
2023-05-19T11:19:35.522Z,4.50
2023-05-19T11:22:11.932Z,4.03
2023-05-19T11:24:44.595Z,3.83
2023-05-19T11:27:24.881Z,3.83
2023-05-19T11:29:53.586Z,4.33
2023-05-19T11:32:27.213Z,4.67
2023-05-19T11:34:56.535Z,4.37
2023-05-19T11:37:24.814Z,4.17
2023-05-19T11:40:14.227Z,4.17
2023-05-19T11:42:44.875Z,4.50
2023-05-19T11:45:13.053Z,5.17
2023-05-19T11:47:59.631Z,4.67
2023-05-19T11:50:29.045Z,4.80
2023-05-19T11:53:03.063Z,4.03
2023-05-19T11:55:31.472Z,4.67
2023-05-19T11:58:04.528Z,4.30
2023-05-19T12:00:40.832Z,4.10
2023-05-19T12:03:09.563Z,4.83
2023-05-19T12:05:42.755Z,5.27
2023-05-19T12:08:16.908Z,4.63
2023-05-19T12:10:46.139Z,3.97
2023-05-19T12:13:16.594Z,3.83
2023-05-19T12:15:49.834Z,4.43
2023-05-19T12:18:17.822Z,4.60
2023-05-19T12:20:47.591Z,4.47
2023-05-19T12:23:16.600Z,4.33
2023-05-19T12:25:50.623Z,4.30
2023-05-19T12:28:23.067Z,4.00
2023-05-19T12:30:55.026Z,5.40
2023-05-19T12:33:24.354Z,4.43
2023-05-19T12:35:52.732Z,4.47
2023-05-19T12:38:23.820Z,5.60
2023-05-19T12:40:52.169Z,5.27
2023-05-19T12:43:25.200Z,4.33
2023-05-19T12:45:56.745Z,4.63
2023-05-19T12:48:26.491Z,3.80
2023-05-19T12:50:57.150Z,5.67
2023-05-19T12:53:29.229Z,4.27
2023-05-19T12:55:57.177Z,4.00
2023-05-19T12:58:35.469Z,4.80
2023-05-19T13:01:05.680Z,4.87
2023-05-19T13:03:33.694Z,4.40
2023-05-19T13:06:07.961Z,4.63
2023-05-19T13:08:36.357Z,4.70
2023-05-19T13:11:06.716Z,4.30
2023-05-19T13:13:35.976Z,5.50
2023-05-19T13:16:03.855Z,4.67
2023-05-19T13:18:34.716Z,4.83
2023-05-19T13:21:04.085Z,4.73
2023-05-19T13:23:33.030Z,4.93
2023-05-19T13:26:05.236Z,4.17
2023-05-19T13:28:37.177Z,5.00
2023-05-19T13:31:05.170Z,5.27
2023-05-19T13:33:33.724Z,5.00
2023-05-19T13:36:02.132Z,5.27
2023-05-19T13:38:30.411Z,4.57
2023-05-19T13:41:09.386Z,4.70
2023-05-19T13:43:39.795Z,5.27
2023-05-19T13:46:11.331Z,5.17
2023-05-19T13:48:41.360Z,5.93
2023-05-19T13:51:10.307Z,4.90
2023-05-19T13:53:39.994Z,5.30
2023-05-19T13:56:07.945Z,5.50
2023-05-19T13:58:41.000Z,3.93
2023-05-19T14:01:09.425Z,4.67
2023-05-19T14:03:37.319Z,4.50
2023-05-19T14:06:09.264Z,4.13
2023-05-19T14:08:37.428Z,4.40
2023-05-19T14:11:07.928Z,4.90
2023-05-19T14:13:41.895Z,4.63
2023-05-19T14:16:13.122Z,5.40
2023-05-19T14:18:42.262Z,4.93
2023-05-19T14:21:14.307Z,5.27
2023-05-19T14:23:44.682Z,4.93
2023-05-19T14:26:15.612Z,5.00
2023-05-19T14:28:47.124Z,4.50
2023-05-19T14:31:16.473Z,4.00
2023-05-19T14:33:46.598Z,4.17
2023-05-19T14:36:17.205Z,4.33
2023-05-19T14:38:45.160Z,4.47
2023-05-19T14:41:16.146Z,4.70
2023-05-19T14:43:49.978Z,4.87
2023-05-19T14:46:19.241Z,4.37
2023-05-19T14:48:53.621Z,5.53
2023-05-19T14:51:21.604Z,4.57
2023-05-19T14:53:50.292Z,4.67
2023-05-19T14:56:23.382Z,4.40
2023-05-19T14:58:55.481Z,4.77
2023-05-19T15:01:27.288Z,5.47
2023-05-19T15:03:55.623Z,4.60
2023-05-19T15:06:25.636Z,4.70
2023-05-19T15:08:53.519Z,4.77
2023-05-19T15:11:24.538Z,5.00
2023-05-19T15:13:52.491Z,4.47
2023-05-19T15:16:23.033Z,4.93
2023-05-19T15:18:52.521Z,5.50
2023-05-19T15:21:20.446Z,4.33
2023-05-19T15:23:48.304Z,4.93
2023-05-19T15:26:16.191Z,4.67
2023-05-19T15:28:46.808Z,4.97
2023-05-19T15:31:15.903Z,4.70
2023-05-19T15:33:46.686Z,5.37
2023-05-19T15:36:17.521Z,5.60
2023-05-19T15:38:45.458Z,4.87
2023-05-19T15:41:13.370Z,4.90
2023-05-19T15:43:42.004Z,4.77
2023-05-19T15:46:11.879Z,5.20
2023-05-19T15:48:42.092Z,5.30
2023-05-19T15:51:11.406Z,5.20
2023-05-19T15:53:41.389Z,5.90
2023-05-19T15:56:13.059Z,4.80
2023-05-19T15:58:41.389Z,5.90
2023-05-19T16:01:09.620Z,4.87
2023-05-19T16:03:37.842Z,5.20
2023-05-19T16:06:07.298Z,5.20
2023-05-19T16:08:35.207Z,4.30
2023-05-19T16:11:15.781Z,4.73
2023-05-19T16:13:44.804Z,4.67
2023-05-19T16:16:12.951Z,5.03
2023-05-19T16:18:53.788Z,4.73
2023-05-19T16:21:22.117Z,4.30
2023-05-19T16:23:50.048Z,5.17
2023-05-19T16:26:19.572Z,4.10
2023-05-19T16:28:53.233Z,4.83
2023-05-19T16:31:25.277Z,4.50
2023-05-19T16:33:55.922Z,5.13
2023-05-19T16:36:23.777Z,5.23
2023-05-19T16:38:54.453Z,4.77
2023-05-19T16:41:27.658Z,4.47
2023-05-19T16:43:58.347Z,5.10
2023-05-19T16:46:26.950Z,4.40
2023-05-19T16:49:17.477Z,4.60
2023-05-19T16:51:47.582Z,4.63
2023-05-19T16:54:20.917Z,4.53
2023-05-19T16:56:51.411Z,4.73
2023-05-19T16:59:19.874Z,4.80
2023-05-19T17:01:53.326Z,5.00
2023-05-19T17:04:28.716Z,4.83
2023-05-19T17:06:58.469Z,4.43
2023-05-19T17:09:29.563Z,4.50
2023-05-19T17:12:01.622Z,4.33
2023-05-19T17:14:29.385Z,4.47
2023-05-19T17:17:04.824Z,4.17
2023-05-19T17:19:32.881Z,4.50
2023-05-19T17:22:00.760Z,4.50
2023-05-19T17:24:35.501Z,4.00
2023-05-19T17:27:07.991Z,4.37
2023-05-19T17:29:38.543Z,5.03
2023-05-19T17:32:06.857Z,4.50
2023-05-19T17:34:34.717Z,3.90
2023-05-19T17:37:09.961Z,3.40
2023-05-19T17:39:37.769Z,4.20
2023-05-19T17:42:10.287Z,4.17
2023-05-19T17:44:38.155Z,4.30
2023-05-19T17:47:08.060Z,4.63
2023-05-19T17:49:35.973Z,3.70
2023-05-19T17:52:04.332Z,4.23
2023-05-19T17:54:33.014Z,4.83
2023-05-19T17:57:08.500Z,3.30
2023-05-19T17:59:40.572Z,4.23
2023-05-19T18:02:09.853Z,4.57
2023-05-19T18:04:38.728Z,3.20
2023-05-19T18:07:08.670Z,5.03
2023-05-19T18:09:41.503Z,4.23
2023-05-19T18:12:11.879Z,3.60
2023-05-19T18:14:41.367Z,4.50
2023-05-19T18:17:10.880Z,3.50
2023-05-19T18:19:41.377Z,4.03
2023-05-19T18:22:12.934Z,4.10
2023-05-19T18:24:43.499Z,4.00
2023-05-19T18:27:11.315Z,4.63
2023-05-19T18:29:42.366Z,5.00
2023-05-19T18:32:16.889Z,5.30
2023-05-19T18:34:45.289Z,6.07
2023-05-19T18:37:13.117Z,5.67
2023-05-19T18:39:43.464Z,5.20
2023-05-19T18:42:14.029Z,4.70
2023-05-19T18:44:42.266Z,4.77
2023-05-19T18:47:13.989Z,4.90
2023-05-19T18:49:43.373Z,5.40
2023-05-19T18:52:13.779Z,4.33
2023-05-19T18:54:45.945Z,4.40
2023-05-19T18:57:16.516Z,4.33
2023-05-19T18:59:53.374Z,4.03
2023-05-19T19:02:21.156Z,3.43
2023-05-19T19:04:53.229Z,3.90
2023-05-19T19:07:21.132Z,3.37
2023-05-19T19:09:49.167Z,4.60
2023-05-19T19:12:24.178Z,4.60
2023-05-19T19:14:55.071Z,4.50
2023-05-19T19:17:24.964Z,4.33
2023-05-19T19:20:00.495Z,4.57
2023-05-19T19:22:30.926Z,5.10
2023-05-19T19:25:08.438Z,4.53
2023-05-19T19:27:40.643Z,5.50
2023-05-19T19:30:12.106Z,6.00
2023-05-19T19:32:41.107Z,6.00
2023-05-19T19:35:13.718Z,6.67
2023-05-19T19:37:42.011Z,5.17
2023-05-19T19:40:10.782Z,6.97
2023-05-19T19:42:59.105Z,6.40
2023-05-19T19:45:34.719Z,10.17
2023-05-19T19:48:02.662Z,9.63
2023-05-19T19:50:34.030Z,10.13
2023-05-19T19:53:09.859Z,6.10
2023-05-19T19:55:40.008Z,8.37
2023-05-19T19:58:10.232Z,6.50
2023-05-19T20:00:40.731Z,6.00
2023-05-19T20:03:08.647Z,6.10
2023-05-19T20:05:39.539Z,5.50
2023-05-19T20:08:14.049Z,6.23
2023-05-19T20:10:43.320Z,6.40
2023-05-19T20:13:11.187Z,4.57
2023-05-19T20:15:39.053Z,6.17
2023-05-19T20:18:06.935Z,5.07
2023-05-19T20:20:35.039Z,6.03
2023-05-19T20:23:04.955Z,4.87
2023-05-19T20:25:36.100Z,4.97
2023-05-19T20:28:04.964Z,5.47
2023-05-19T20:30:34.792Z,8.13
2023-05-19T20:33:06.893Z,7.20
2023-05-19T20:35:40.507Z,6.20
2023-05-19T20:38:12.717Z,6.77
2023-05-19T20:40:40.941Z,5.47
2023-05-19T20:43:08.783Z,4.83
2023-05-19T20:45:39.716Z,5.63
2023-05-19T20:48:07.619Z,5.90
2023-05-19T20:50:35.498Z,5.60
2023-05-19T20:53:03.371Z,5.53
2023-05-19T20:55:36.141Z,5.10
2023-05-19T20:58:04.224Z,5.37
2023-05-19T21:00:32.645Z,5.33
2023-05-19T21:03:00.883Z,4.63
2023-05-19T21:05:29.197Z,5.43
2023-05-19T21:07:57.117Z,4.30
2023-05-19T21:10:25.993Z,5.20
2023-05-19T21:12:56.347Z,5.67
2023-05-19T21:15:24.593Z,4.83
2023-05-19T21:17:55.329Z,5.50
2023-05-19T21:20:23.308Z,4.83
2023-05-19T21:22:53.929Z,4.63
2023-05-19T21:25:22.358Z,4.77
2023-05-19T21:27:58.810Z,4.97
2023-05-19T21:30:31.062Z,6.63
2023-05-19T21:32:59.345Z,7.50
2023-05-19T21:35:27.252Z,5.70
2023-05-19T21:37:57.390Z,7.10
2023-05-19T21:40:25.286Z,6.83
2023-05-19T21:42:53.378Z,6.80
2023-05-19T21:45:21.232Z,4.13
2023-05-19T21:47:56.690Z,4.63
2023-05-19T21:50:27.052Z,4.90
2023-05-19T21:52:54.856Z,3.90
2023-05-19T21:55:24.526Z,4.37
2023-05-19T21:57:52.341Z,4.13
2023-05-19T22:00:20.191Z,4.00
2023-05-19T22:02:48.073Z,4.03
2023-05-19T22:05:17.782Z,4.90
2023-05-19T22:07:46.812Z,5.83
2023-05-19T22:10:15.055Z,5.80
2023-05-19T22:12:43.157Z,5.80
2023-05-19T22:15:13.421Z,4.60
2023-05-19T22:17:47.548Z,5.00
2023-05-19T22:20:17.363Z,4.43
2023-05-19T22:22:47.200Z,5.87
2023-05-19T22:25:17.448Z,5.80
2023-05-19T22:27:47.751Z,5.50
2023-05-19T22:30:17.969Z,6.07
2023-05-19T22:32:45.744Z,5.57
2023-05-19T22:35:13.610Z,5.63
2023-05-19T22:37:43.119Z,5.60
2023-05-19T22:40:13.910Z,5.33
2023-05-19T22:42:46.938Z,4.80
2023-05-19T22:45:15.837Z,5.00
2023-05-19T22:47:47.947Z,5.40
2023-05-19T22:50:21.744Z,4.97
2023-05-19T22:52:53.837Z,4.83
2023-05-19T22:55:22.821Z,5.20
2023-05-19T22:57:51.067Z,5.00
2023-05-19T23:00:20.825Z,4.20
2023-05-19T23:02:48.678Z,5.47
2023-05-19T23:05:20.018Z,4.67
2023-05-19T23:07:49.138Z,4.67
2023-05-19T23:10:22.148Z,4.20
2023-05-19T23:12:51.902Z,3.00
2023-05-19T23:15:21.067Z,3.77
2023-05-19T23:17:50.666Z,3.60
2023-05-19T23:20:24.019Z,4.00
2023-05-19T23:22:51.848Z,3.83
2023-05-19T23:25:21.049Z,3.60
2023-05-19T23:27:50.942Z,3.70
2023-05-19T23:30:21.583Z,3.40
2023-05-19T23:33:03.827Z,4.77
2023-05-19T23:35:41.900Z,4.87
2023-05-19T23:38:10.895Z,4.30
2023-05-19T23:40:43.925Z,4.50
2023-05-19T23:43:14.557Z,5.20
2023-05-19T23:45:42.997Z,5.80
2023-05-19T23:48:11.188Z,4.33
2023-05-19T23:50:42.983Z,5.10
2023-05-19T23:53:10.716Z,4.53
2023-05-19T23:55:40.857Z,4.90
2023-05-19T23:58:11.804Z,4.73
